sensor_id;sensor_type;location;lat;lon;timestamp;temperature;humidity
69731;SHT31;56996;48.138;11.538;2023-08-30T00:01:26;14.31;82.93
69731;SHT31;56996;48.138;11.538;2023-08-30T00:03:52;14.32;82.94
69731;SHT31;56996;48.138;11.538;2023-08-30T00:06:19;14.30;82.86
69731;SHT31;56996;48.138;11.538;2023-08-30T00:08:46;14.27;82.95
69731;SHT31;56996;48.138;11.538;2023-08-30T00:11:13;14.28;82.98
69731;SHT31;56996;48.138;11.538;2023-08-30T00:13:40;14.29;82.79
69731;SHT31;56996;48.138;11.538;2023-08-30T00:16:08;14.30;82.82
69731;SHT31;56996;48.138;11.538;2023-08-30T00:18:35;14.30;82.84
69731;SHT31;56996;48.138;11.538;2023-08-30T00:21:02;14.28;82.80
69731;SHT31;56996;48.138;11.538;2023-08-30T00:23:29;14.24;82.77
69731;SHT31;56996;48.138;11.538;2023-08-30T00:25:55;14.21;82.82
69731;SHT31;56996;48.138;11.538;2023-08-30T00:28:22;14.22;82.93
69731;SHT31;56996;48.138;11.538;2023-08-30T00:30:55;14.21;82.79
69731;SHT31;56996;48.138;11.538;2023-08-30T00:33:22;14.20;82.83
69731;SHT31;56996;48.138;11.538;2023-08-30T00:35:58;14.19;82.75
69731;SHT31;56996;48.138;11.538;2023-08-30T00:38:26;14.20;82.63
69731;SHT31;56996;48.138;11.538;2023-08-30T00:40:54;14.21;82.68
69731;SHT31;56996;48.138;11.538;2023-08-30T00:43:21;14.18;82.80
69731;SHT31;56996;48.138;11.538;2023-08-30T00:45:48;14.18;82.81
69731;SHT31;56996;48.138;11.538;2023-08-30T00:48:15;14.14;82.83
69731;SHT31;56996;48.138;11.538;2023-08-30T00:50:45;14.12;82.69
69731;SHT31;56996;48.138;11.538;2023-08-30T00:53:12;14.09;82.71
69731;SHT31;56996;48.138;11.538;2023-08-30T00:55:42;14.10;82.64
69731;SHT31;56996;48.138;11.538;2023-08-30T00:58:10;14.09;82.60
69731;SHT31;56996;48.138;11.538;2023-08-30T01:00:38;14.11;82.58
69731;SHT31;56996;48.138;11.538;2023-08-30T01:03:06;14.13;82.56
69731;SHT31;56996;48.138;11.538;2023-08-30T01:05:36;14.15;82.60
69731;SHT31;56996;48.138;11.538;2023-08-30T01:08:04;14.09;82.50
69731;SHT31;56996;48.138;11.538;2023-08-30T01:10:38;14.06;82.58
69731;SHT31;56996;48.138;11.538;2023-08-30T01:13:25;14.05;82.57
69731;SHT31;56996;48.138;11.538;2023-08-30T01:15:56;14.04;82.59
69731;SHT31;56996;48.138;11.538;2023-08-30T01:18:26;14.03;82.53
69731;SHT31;56996;48.138;11.538;2023-08-30T01:20:56;14.04;82.47
69731;SHT31;56996;48.138;11.538;2023-08-30T01:26:41;14.05;82.44
69731;SHT31;56996;48.138;11.538;2023-08-30T01:29:11;14.02;82.40
69731;SHT31;56996;48.138;11.538;2023-08-30T01:31:43;14.00;82.48
69731;SHT31;56996;48.138;11.538;2023-08-30T01:34:13;13.97;82.49
69731;SHT31;56996;48.138;11.538;2023-08-30T01:36:41;13.96;82.59
69731;SHT31;56996;48.138;11.538;2023-08-30T01:39:10;13.96;82.51
69731;SHT31;56996;48.138;11.538;2023-08-30T01:41:38;13.97;82.62
69731;SHT31;56996;48.138;11.538;2023-08-30T01:44:05;13.95;82.77
69731;SHT31;56996;48.138;11.538;2023-08-30T01:46:34;13.94;82.80
69731;SHT31;56996;48.138;11.538;2023-08-30T01:49:02;13.96;82.63
69731;SHT31;56996;48.138;11.538;2023-08-30T01:51:30;13.98;82.67
69731;SHT31;56996;48.138;11.538;2023-08-30T01:54:01;13.96;82.70
69731;SHT31;56996;48.138;11.538;2023-08-30T01:56:30;13.94;82.85
69731;SHT31;56996;48.138;11.538;2023-08-30T01:58:56;13.95;82.76
69731;SHT31;56996;48.138;11.538;2023-08-30T02:01:23;14.00;82.76
69731;SHT31;56996;48.138;11.538;2023-08-30T02:03:51;14.03;82.70
69731;SHT31;56996;48.138;11.538;2023-08-30T02:06:21;14.07;82.64
69731;SHT31;56996;48.138;11.538;2023-08-30T02:08:59;14.09;82.52
69731;SHT31;56996;48.138;11.538;2023-08-30T02:11:34;14.07;82.28
69731;SHT31;56996;48.138;11.538;2023-08-30T02:14:03;14.07;82.16
69731;SHT31;56996;48.138;11.538;2023-08-30T02:16:35;14.08;82.10
69731;SHT31;56996;48.138;11.538;2023-08-30T02:19:04;14.09;82.17
69731;SHT31;56996;48.138;11.538;2023-08-30T02:21:33;14.09;82.18
69731;SHT31;56996;48.138;11.538;2023-08-30T02:24:00;14.07;82.20
69731;SHT31;56996;48.138;11.538;2023-08-30T02:26:29;14.03;82.55
69731;SHT31;56996;48.138;11.538;2023-08-30T02:28:56;14.04;82.48
69731;SHT31;56996;48.138;11.538;2023-08-30T02:31:22;14.04;82.20
69731;SHT31;56996;48.138;11.538;2023-08-30T02:33:49;14.04;82.19
69731;SHT31;56996;48.138;11.538;2023-08-30T02:36:16;14.03;82.17
69731;SHT31;56996;48.138;11.538;2023-08-30T02:38:42;14.02;82.21
69731;SHT31;56996;48.138;11.538;2023-08-30T02:41:09;14.03;82.17
69731;SHT31;56996;48.138;11.538;2023-08-30T02:43:36;14.05;82.09
69731;SHT31;56996;48.138;11.538;2023-08-30T02:46:04;14.08;82.00
69731;SHT31;56996;48.138;11.538;2023-08-30T02:48:32;14.08;81.96
69731;SHT31;56996;48.138;11.538;2023-08-30T02:51:00;14.07;82.03
69731;SHT31;56996;48.138;11.538;2023-08-30T02:53:26;14.08;81.96
69731;SHT31;56996;48.138;11.538;2023-08-30T02:55:53;14.07;81.97
69731;SHT31;56996;48.138;11.538;2023-08-30T02:58:21;14.07;81.95
69731;SHT31;56996;48.138;11.538;2023-08-30T03:00:52;14.04;81.90
69731;SHT31;56996;48.138;11.538;2023-08-30T03:03:19;14.01;82.04
69731;SHT31;56996;48.138;11.538;2023-08-30T03:05:46;14.04;82.11
69731;SHT31;56996;48.138;11.538;2023-08-30T03:08:16;14.04;82.32
69731;SHT31;56996;48.138;11.538;2023-08-30T03:10:43;14.02;82.37
69731;SHT31;56996;48.138;11.538;2023-08-30T03:13:11;14.03;82.14
69731;SHT31;56996;48.138;11.538;2023-08-30T03:15:38;14.05;82.13
69731;SHT31;56996;48.138;11.538;2023-08-30T03:18:05;14.05;82.11
69731;SHT31;56996;48.138;11.538;2023-08-30T03:20:32;14.08;82.12
69731;SHT31;56996;48.138;11.538;2023-08-30T03:22:59;14.09;82.02
69731;SHT31;56996;48.138;11.538;2023-08-30T03:25:28;14.10;81.96
69731;SHT31;56996;48.138;11.538;2023-08-30T03:27:56;14.09;82.00
69731;SHT31;56996;48.138;11.538;2023-08-30T03:30:23;14.05;82.02
69731;SHT31;56996;48.138;11.538;2023-08-30T03:32:50;14.07;82.19
69731;SHT31;56996;48.138;11.538;2023-08-30T03:35:16;14.07;82.11
69731;SHT31;56996;48.138;11.538;2023-08-30T03:37:43;14.07;82.04
69731;SHT31;56996;48.138;11.538;2023-08-30T03:40:10;14.06;82.10
69731;SHT31;56996;48.138;11.538;2023-08-30T03:42:38;14.06;82.09
69731;SHT31;56996;48.138;11.538;2023-08-30T03:45:05;14.08;82.10
69731;SHT31;56996;48.138;11.538;2023-08-30T03:47:34;14.09;82.17
69731;SHT31;56996;48.138;11.538;2023-08-30T03:50:00;14.09;82.13
69731;SHT31;56996;48.138;11.538;2023-08-30T03:52:28;14.10;82.01
69731;SHT31;56996;48.138;11.538;2023-08-30T03:54:55;14.13;82.09
69731;SHT31;56996;48.138;11.538;2023-08-30T03:57:22;14.14;82.13
69731;SHT31;56996;48.138;11.538;2023-08-30T03:59:48;14.16;82.31
69731;SHT31;56996;48.138;11.538;2023-08-30T04:02:15;14.15;82.23
69731;SHT31;56996;48.138;11.538;2023-08-30T04:04:42;14.15;82.24
69731;SHT31;56996;48.138;11.538;2023-08-30T04:07:08;14.16;82.35
69731;SHT31;56996;48.138;11.538;2023-08-30T04:09:35;14.18;82.47
69731;SHT31;56996;48.138;11.538;2023-08-30T04:12:03;14.19;82.13
69731;SHT31;56996;48.138;11.538;2023-08-30T04:14:31;14.19;81.91
69731;SHT31;56996;48.138;11.538;2023-08-30T04:16:58;14.20;81.94
69731;SHT31;56996;48.138;11.538;2023-08-30T04:19:26;14.22;81.85
69731;SHT31;56996;48.138;11.538;2023-08-30T04:21:52;14.23;82.11
69731;SHT31;56996;48.138;11.538;2023-08-30T04:24:19;14.23;82.17
69731;SHT31;56996;48.138;11.538;2023-08-30T04:26:46;14.24;82.27
69731;SHT31;56996;48.138;11.538;2023-08-30T04:29:17;14.23;82.24
69731;SHT31;56996;48.138;11.538;2023-08-30T04:31:44;14.20;82.45
69731;SHT31;56996;48.138;11.538;2023-08-30T04:34:11;14.22;82.40
69731;SHT31;56996;48.138;11.538;2023-08-30T04:36:38;14.22;82.28
69731;SHT31;56996;48.138;11.538;2023-08-30T04:39:04;14.20;82.34
69731;SHT31;56996;48.138;11.538;2023-08-30T04:41:31;14.19;82.26
69731;SHT31;56996;48.138;11.538;2023-08-30T04:44:00;14.18;82.29
69731;SHT31;56996;48.138;11.538;2023-08-30T04:46:27;14.17;82.27
69731;SHT31;56996;48.138;11.538;2023-08-30T04:48:53;14.17;82.28
69731;SHT31;56996;48.138;11.538;2023-08-30T04:51:20;14.19;82.38
69731;SHT31;56996;48.138;11.538;2023-08-30T04:53:47;14.21;82.22
69731;SHT31;56996;48.138;11.538;2023-08-30T04:56:14;14.23;82.25
69731;SHT31;56996;48.138;11.538;2023-08-30T04:58:41;14.25;82.36
69731;SHT31;56996;48.138;11.538;2023-08-30T05:01:10;14.29;82.20
69731;SHT31;56996;48.138;11.538;2023-08-30T05:03:41;14.33;82.14
69731;SHT31;56996;48.138;11.538;2023-08-30T05:06:11;14.35;81.97
69731;SHT31;56996;48.138;11.538;2023-08-30T05:08:42;14.34;81.63
69731;SHT31;56996;48.138;11.538;2023-08-30T05:11:09;14.35;81.68
69731;SHT31;56996;48.138;11.538;2023-08-30T05:13:36;14.38;81.60
69731;SHT31;56996;48.138;11.538;2023-08-30T05:16:03;14.42;81.74
69731;SHT31;56996;48.138;11.538;2023-08-30T05:18:31;14.45;81.57
69731;SHT31;56996;48.138;11.538;2023-08-30T05:21:00;14.45;81.39
69731;SHT31;56996;48.138;11.538;2023-08-30T05:23:29;14.44;81.38
69731;SHT31;56996;48.138;11.538;2023-08-30T05:25:57;14.44;81.38
69731;SHT31;56996;48.138;11.538;2023-08-30T05:28:24;14.46;81.34
69731;SHT31;56996;48.138;11.538;2023-08-30T05:30:50;14.50;81.08
69731;SHT31;56996;48.138;11.538;2023-08-30T05:33:28;14.54;81.10
69731;SHT31;56996;48.138;11.538;2023-08-30T05:36:11;14.55;81.17
69731;SHT31;56996;48.138;11.538;2023-08-30T05:38:59;14.54;80.94
69731;SHT31;56996;48.138;11.538;2023-08-30T05:41:35;14.55;80.83
69731;SHT31;56996;48.138;11.538;2023-08-30T05:44:02;14.51;80.86
69731;SHT31;56996;48.138;11.538;2023-08-30T05:46:29;14.46;80.92
69731;SHT31;56996;48.138;11.538;2023-08-30T05:48:55;14.49;81.11
69731;SHT31;56996;48.138;11.538;2023-08-30T05:51:22;14.50;81.07
69731;SHT31;56996;48.138;11.538;2023-08-30T05:53:49;14.51;80.98
69731;SHT31;56996;48.138;11.538;2023-08-30T05:56:16;14.52;81.03
69731;SHT31;56996;48.138;11.538;2023-08-30T05:58:43;14.56;80.81
69731;SHT31;56996;48.138;11.538;2023-08-30T06:01:10;14.59;80.82
69731;SHT31;56996;48.138;11.538;2023-08-30T06:03:37;14.64;80.87
69731;SHT31;56996;48.138;11.538;2023-08-30T06:06:04;14.61;80.12
69731;SHT31;56996;48.138;11.538;2023-08-30T06:08:31;14.52;80.56
69731;SHT31;56996;48.138;11.538;2023-08-30T06:10:58;14.53;80.59
69731;SHT31;56996;48.138;11.538;2023-08-30T06:13:25;14.58;80.59
69731;SHT31;56996;48.138;11.538;2023-08-30T06:15:52;14.62;80.29
69731;SHT31;56996;48.138;11.538;2023-08-30T06:18:19;14.61;80.22
69731;SHT31;56996;48.138;11.538;2023-08-30T06:20:46;14.62;80.16
69731;SHT31;56996;48.138;11.538;2023-08-30T06:23:13;14.61;80.13
69731;SHT31;56996;48.138;11.538;2023-08-30T06:25:41;14.63;80.01
69731;SHT31;56996;48.138;11.538;2023-08-30T06:28:08;14.65;79.98
69731;SHT31;56996;48.138;11.538;2023-08-30T06:30:35;14.68;79.93
69731;SHT31;56996;48.138;11.538;2023-08-30T06:33:02;14.71;79.77
69731;SHT31;56996;48.138;11.538;2023-08-30T06:35:30;14.75;79.80
69731;SHT31;56996;48.138;11.538;2023-08-30T06:37:56;14.80;79.64
69731;SHT31;56996;48.138;11.538;2023-08-30T06:40:24;14.84;79.49
69731;SHT31;56996;48.138;11.538;2023-08-30T06:42:51;14.88;79.33
69731;SHT31;56996;48.138;11.538;2023-08-30T06:45:17;14.88;79.26
69731;SHT31;56996;48.138;11.538;2023-08-30T06:47:45;14.96;79.37
69731;SHT31;56996;48.138;11.538;2023-08-30T06:50:11;15.00;79.38
69731;SHT31;56996;48.138;11.538;2023-08-30T06:52:38;14.92;79.55
69731;SHT31;56996;48.138;11.538;2023-08-30T06:55:05;14.96;79.58
69731;SHT31;56996;48.138;11.538;2023-08-30T06:57:32;15.06;79.57
69731;SHT31;56996;48.138;11.538;2023-08-30T06:59:59;15.15;79.43
69731;SHT31;56996;48.138;11.538;2023-08-30T07:02:37;15.19;79.26
69731;SHT31;56996;48.138;11.538;2023-08-30T07:05:04;15.23;79.18
69731;SHT31;56996;48.138;11.538;2023-08-30T07:07:31;15.20;78.76
69731;SHT31;56996;48.138;11.538;2023-08-30T07:09:58;15.13;78.70
69731;SHT31;56996;48.138;11.538;2023-08-30T07:12:25;15.15;78.90
69731;SHT31;56996;48.138;11.538;2023-08-30T07:14:52;15.18;78.74
69731;SHT31;56996;48.138;11.538;2023-08-30T07:17:19;15.19;78.89
69731;SHT31;56996;48.138;11.538;2023-08-30T07:19:46;15.16;79.24
69731;SHT31;56996;48.138;11.538;2023-08-30T07:22:13;15.22;79.40
69731;SHT31;56996;48.138;11.538;2023-08-30T07:24:40;15.26;79.36
69731;SHT31;56996;48.138;11.538;2023-08-30T07:27:06;15.30;79.26
69731;SHT31;56996;48.138;11.538;2023-08-30T07:29:34;15.30;78.73
69731;SHT31;56996;48.138;11.538;2023-08-30T07:32:01;15.31;79.00
69731;SHT31;56996;48.138;11.538;2023-08-30T07:34:29;15.43;78.96
69731;SHT31;56996;48.138;11.538;2023-08-30T07:36:56;15.54;78.56
69731;SHT31;56996;48.138;11.538;2023-08-30T07:39:23;15.63;78.02
69731;SHT31;56996;48.138;11.538;2023-08-30T07:41:49;15.65;77.84
69731;SHT31;56996;48.138;11.538;2023-08-30T07:44:16;15.68;77.90
69731;SHT31;56996;48.138;11.538;2023-08-30T07:46:43;15.73;77.75
69731;SHT31;56996;48.138;11.538;2023-08-30T07:49:09;15.78;77.83
69731;SHT31;56996;48.138;11.538;2023-08-30T07:51:36;15.86;77.84
69731;SHT31;56996;48.138;11.538;2023-08-30T07:54:03;15.91;77.61
69731;SHT31;56996;48.138;11.538;2023-08-30T07:56:31;15.94;77.57
69731;SHT31;56996;48.138;11.538;2023-08-30T07:58:57;15.94;77.53
69731;SHT31;56996;48.138;11.538;2023-08-30T08:01:24;15.93;77.26
69731;SHT31;56996;48.138;11.538;2023-08-30T08:03:51;15.86;76.94
69731;SHT31;56996;48.138;11.538;2023-08-30T08:06:32;15.80;77.20
69731;SHT31;56996;48.138;11.538;2023-08-30T08:09:00;15.84;77.28
69731;SHT31;56996;48.138;11.538;2023-08-30T08:11:28;15.92;77.22
69731;SHT31;56996;48.138;11.538;2023-08-30T08:13:55;16.04;77.06
69731;SHT31;56996;48.138;11.538;2023-08-30T08:16:22;16.13;76.88
69731;SHT31;56996;48.138;11.538;2023-08-30T08:18:49;16.12;76.57
69731;SHT31;56996;48.138;11.538;2023-08-30T08:21:17;16.13;76.59
69731;SHT31;56996;48.138;11.538;2023-08-30T08:23:44;16.19;76.38
69731;SHT31;56996;48.138;11.538;2023-08-30T08:26:11;16.22;76.18
69731;SHT31;56996;48.138;11.538;2023-08-30T08:28:37;16.28;76.11
69731;SHT31;56996;48.138;11.538;2023-08-30T08:31:04;16.37;75.71
69731;SHT31;56996;48.138;11.538;2023-08-30T08:33:31;16.45;75.35
69731;SHT31;56996;48.138;11.538;2023-08-30T08:35:58;16.56;75.54
69731;SHT31;56996;48.138;11.538;2023-08-30T08:38:25;16.73;74.99
69731;SHT31;56996;48.138;11.538;2023-08-30T08:41:00;16.85;74.57
69731;SHT31;56996;48.138;11.538;2023-08-30T08:43:29;17.01;73.82
69731;SHT31;56996;48.138;11.538;2023-08-30T08:46:00;17.22;73.32
69731;SHT31;56996;48.138;11.538;2023-08-30T08:48:29;17.52;72.84
69731;SHT31;56996;48.138;11.538;2023-08-30T08:51:00;17.91;72.05
69731;SHT31;56996;48.138;11.538;2023-08-30T08:53:28;18.44;71.08
69731;SHT31;56996;48.138;11.538;2023-08-30T08:55:55;19.15;69.54
69731;SHT31;56996;48.138;11.538;2023-08-30T08:58:25;20.14;67.24
69731;SHT31;56996;48.138;11.538;2023-08-30T09:00:52;21.25;64.49
69731;SHT31;56996;48.138;11.538;2023-08-30T09:03:19;21.96;63.76
69731;SHT31;56996;48.138;11.538;2023-08-30T09:05:48;22.80;61.71
69731;SHT31;56996;48.138;11.538;2023-08-30T09:08:17;23.64;58.63
69731;SHT31;56996;48.138;11.538;2023-08-30T09:10:44;24.74;57.02
69731;SHT31;56996;48.138;11.538;2023-08-30T09:13:11;25.94;54.25
69731;SHT31;56996;48.138;11.538;2023-08-30T09:15:38;26.74;52.66
69731;SHT31;56996;48.138;11.538;2023-08-30T09:18:13;27.27;50.54
69731;SHT31;56996;48.138;11.538;2023-08-30T09:20:43;27.32;50.05
69731;SHT31;56996;48.138;11.538;2023-08-30T09:23:19;27.47;48.22
69731;SHT31;56996;48.138;11.538;2023-08-30T09:25:47;27.77;47.19
69731;SHT31;56996;48.138;11.538;2023-08-30T09:28:21;28.02;46.65
69731;SHT31;56996;48.138;11.538;2023-08-30T09:30:49;28.58;46.28
69731;SHT31;56996;48.138;11.538;2023-08-30T09:33:20;29.57;44.68
69731;SHT31;56996;48.138;11.538;2023-08-30T09:35:57;30.63;42.72
69731;SHT31;56996;48.138;11.538;2023-08-30T09:38:24;31.25;41.68
69731;SHT31;56996;48.138;11.538;2023-08-30T09:40:52;30.85;41.51
69731;SHT31;56996;48.138;11.538;2023-08-30T09:43:31;30.27;40.91
69731;SHT31;56996;48.138;11.538;2023-08-30T09:46:06;30.29;40.35
69731;SHT31;56996;48.138;11.538;2023-08-30T09:48:33;29.95;39.85
69731;SHT31;56996;48.138;11.538;2023-08-30T09:51:00;29.18;40.84
69731;SHT31;56996;48.138;11.538;2023-08-30T09:53:29;28.48;41.15
69731;SHT31;56996;48.138;11.538;2023-08-30T09:56:26;27.62;41.66
69731;SHT31;56996;48.138;11.538;2023-08-30T09:58:54;27.01;42.15
69731;SHT31;56996;48.138;11.538;2023-08-30T10:01:21;26.24;42.07
69731;SHT31;56996;48.138;11.538;2023-08-30T10:03:49;25.52;42.44
69731;SHT31;56996;48.138;11.538;2023-08-30T10:06:17;25.09;43.19
69731;SHT31;56996;48.138;11.538;2023-08-30T10:08:45;25.02;43.06
69731;SHT31;56996;48.138;11.538;2023-08-30T10:11:14;24.99;43.52
69731;SHT31;56996;48.138;11.538;2023-08-30T10:13:44;25.11;43.42
69731;SHT31;56996;48.138;11.538;2023-08-30T10:16:14;25.08;42.99
69731;SHT31;56996;48.138;11.538;2023-08-30T10:18:47;24.95;43.64
69731;SHT31;56996;48.138;11.538;2023-08-30T10:21:31;24.77;44.11
69731;SHT31;56996;48.138;11.538;2023-08-30T10:23:58;24.53;44.68
69731;SHT31;56996;48.138;11.538;2023-08-30T10:26:26;24.29;44.83
69731;SHT31;56996;48.138;11.538;2023-08-30T10:28:55;23.97;45.01
69731;SHT31;56996;48.138;11.538;2023-08-30T10:31:23;23.58;46.14
69731;SHT31;56996;48.138;11.538;2023-08-30T10:33:54;23.22;45.43
69731;SHT31;56996;48.138;11.538;2023-08-30T10:36:23;23.07;46.45
69731;SHT31;56996;48.138;11.538;2023-08-30T10:38:51;23.11;46.69
69731;SHT31;56996;48.138;11.538;2023-08-30T10:41:26;22.77;47.15
69731;SHT31;56996;48.138;11.538;2023-08-30T10:43:55;22.45;47.67
69731;SHT31;56996;48.138;11.538;2023-08-30T10:46:34;22.09;48.57
69731;SHT31;56996;48.138;11.538;2023-08-30T10:49:10;21.96;48.27
69731;SHT31;56996;48.138;11.538;2023-08-30T10:51:41;21.96;48.16
69731;SHT31;56996;48.138;11.538;2023-08-30T10:54:11;21.93;48.03
69731;SHT31;56996;48.138;11.538;2023-08-30T10:59:20;21.98;46.92
69731;SHT31;56996;48.138;11.538;2023-08-30T11:01:49;22.01;46.53
69731;SHT31;56996;48.138;11.538;2023-08-30T11:04:19;22.07;46.30
69731;SHT31;56996;48.138;11.538;2023-08-30T11:06:49;22.14;46.36
69731;SHT31;56996;48.138;11.538;2023-08-30T11:09:21;22.21;46.59
69731;SHT31;56996;48.138;11.538;2023-08-30T11:11:51;22.28;46.64
69731;SHT31;56996;48.138;11.538;2023-08-30T11:14:18;22.37;46.37
69731;SHT31;56996;48.138;11.538;2023-08-30T11:16:45;22.41;46.69
69731;SHT31;56996;48.138;11.538;2023-08-30T11:19:12;22.35;46.45
69731;SHT31;56996;48.138;11.538;2023-08-30T11:21:39;22.26;46.09
69731;SHT31;56996;48.138;11.538;2023-08-30T11:24:10;22.31;46.30
69731;SHT31;56996;48.138;11.538;2023-08-30T11:26:38;22.41;46.53
69731;SHT31;56996;48.138;11.538;2023-08-30T11:29:07;22.49;46.55
69731;SHT31;56996;48.138;11.538;2023-08-30T11:31:34;22.47;46.52
69731;SHT31;56996;48.138;11.538;2023-08-30T11:34:02;22.45;46.63
69731;SHT31;56996;48.138;11.538;2023-08-30T11:36:29;22.55;45.98
69731;SHT31;56996;48.138;11.538;2023-08-30T11:38:58;22.59;46.07
69731;SHT31;56996;48.138;11.538;2023-08-30T11:41:25;22.58;45.29
69731;SHT31;56996;48.138;11.538;2023-08-30T11:43:52;22.29;45.87
69731;SHT31;56996;48.138;11.538;2023-08-30T11:46:20;22.16;46.12
69731;SHT31;56996;48.138;11.538;2023-08-30T11:48:48;22.12;44.62
69731;SHT31;56996;48.138;11.538;2023-08-30T11:51:17;21.88;45.55
69731;SHT31;56996;48.138;11.538;2023-08-30T11:53:45;21.98;46.79
69731;SHT31;56996;48.138;11.538;2023-08-30T11:56:13;22.28;46.45
69731;SHT31;56996;48.138;11.538;2023-08-30T11:58:40;22.49;46.17
69731;SHT31;56996;48.138;11.538;2023-08-30T12:01:07;22.63;46.27
69731;SHT31;56996;48.138;11.538;2023-08-30T12:03:34;22.85;46.28
69731;SHT31;56996;48.138;11.538;2023-08-30T12:06:08;22.83;45.96
69731;SHT31;56996;48.138;11.538;2023-08-30T12:08:38;22.80;46.26
69731;SHT31;56996;48.138;11.538;2023-08-30T12:11:05;22.85;45.70
69731;SHT31;56996;48.138;11.538;2023-08-30T12:13:32;22.68;45.67
69731;SHT31;56996;48.138;11.538;2023-08-30T12:16:01;22.58;46.33
69731;SHT31;56996;48.138;11.538;2023-08-30T12:18:29;22.51;46.82
69731;SHT31;56996;48.138;11.538;2023-08-30T12:21:00;22.46;47.36
69731;SHT31;56996;48.138;11.538;2023-08-30T12:23:30;22.35;47.05
69731;SHT31;56996;48.138;11.538;2023-08-30T12:25:59;22.16;47.22
69731;SHT31;56996;48.138;11.538;2023-08-30T12:28:27;22.02;47.68
69731;SHT31;56996;48.138;11.538;2023-08-30T12:30:55;22.02;47.70
69731;SHT31;56996;48.138;11.538;2023-08-30T12:33:23;21.99;47.69
69731;SHT31;56996;48.138;11.538;2023-08-30T12:35:55;22.07;47.34
69731;SHT31;56996;48.138;11.538;2023-08-30T12:38:22;22.20;47.05
69731;SHT31;56996;48.138;11.538;2023-08-30T12:40:50;22.28;46.59
69731;SHT31;56996;48.138;11.538;2023-08-30T12:43:20;22.10;45.51
69731;SHT31;56996;48.138;11.538;2023-08-30T12:45:48;21.99;46.06
69731;SHT31;56996;48.138;11.538;2023-08-30T12:48:17;22.15;45.53
69731;SHT31;56996;48.138;11.538;2023-08-30T12:50:45;22.26;45.53
69731;SHT31;56996;48.138;11.538;2023-08-30T12:53:14;22.40;45.02
69731;SHT31;56996;48.138;11.538;2023-08-30T12:55:43;22.38;45.47
69731;SHT31;56996;48.138;11.538;2023-08-30T12:58:10;22.63;45.49
69731;SHT31;56996;48.138;11.538;2023-08-30T13:00:38;22.82;44.94
69731;SHT31;56996;48.138;11.538;2023-08-30T13:03:05;22.85;44.88
69731;SHT31;56996;48.138;11.538;2023-08-30T13:05:32;22.83;44.73
69731;SHT31;56996;48.138;11.538;2023-08-30T13:07:59;22.78;44.39
69731;SHT31;56996;48.138;11.538;2023-08-30T13:10:27;22.73;43.89
69731;SHT31;56996;48.138;11.538;2023-08-30T13:12:53;22.61;43.27
69731;SHT31;56996;48.138;11.538;2023-08-30T13:15:21;22.56;42.89
69731;SHT31;56996;48.138;11.538;2023-08-30T13:17:48;22.51;43.34
69731;SHT31;56996;48.138;11.538;2023-08-30T13:20:15;22.40;43.15
69731;SHT31;56996;48.138;11.538;2023-08-30T13:22:41;22.30;43.34
69731;SHT31;56996;48.138;11.538;2023-08-30T13:25:08;22.25;43.41
69731;SHT31;56996;48.138;11.538;2023-08-30T13:27:35;22.16;43.33
69731;SHT31;56996;48.138;11.538;2023-08-30T13:30:02;22.10;43.95
69731;SHT31;56996;48.138;11.538;2023-08-30T13:32:29;21.94;45.86
69731;SHT31;56996;48.138;11.538;2023-08-30T13:34:56;21.80;46.90
69731;SHT31;56996;48.138;11.538;2023-08-30T13:37:22;21.62;47.59
69731;SHT31;56996;48.138;11.538;2023-08-30T13:39:50;21.34;48.20
69731;SHT31;56996;48.138;11.538;2023-08-30T13:42:19;21.13;48.90
69731;SHT31;56996;48.138;11.538;2023-08-30T13:44:50;20.98;49.34
69731;SHT31;56996;48.138;11.538;2023-08-30T13:47:17;20.83;49.72
69731;SHT31;56996;48.138;11.538;2023-08-30T13:49:45;20.68;50.11
69731;SHT31;56996;48.138;11.538;2023-08-30T13:52:12;20.46;50.63
69731;SHT31;56996;48.138;11.538;2023-08-30T13:54:38;20.32;50.97
69731;SHT31;56996;48.138;11.538;2023-08-30T13:57:05;20.22;50.97
69731;SHT31;56996;48.138;11.538;2023-08-30T13:59:32;20.17;51.54
69731;SHT31;56996;48.138;11.538;2023-08-30T14:01:58;20.03;52.05
69731;SHT31;56996;48.138;11.538;2023-08-30T14:04:25;19.95;53.00
69731;SHT31;56996;48.138;11.538;2023-08-30T14:06:52;19.84;53.19
69731;SHT31;56996;48.138;11.538;2023-08-30T14:09:19;19.75;53.63
69731;SHT31;56996;48.138;11.538;2023-08-30T14:11:46;19.70;54.10
69731;SHT31;56996;48.138;11.538;2023-08-30T14:14:13;19.70;54.54
69731;SHT31;56996;48.138;11.538;2023-08-30T14:16:40;19.74;54.89
69731;SHT31;56996;48.138;11.538;2023-08-30T14:19:07;19.77;55.18
69731;SHT31;56996;48.138;11.538;2023-08-30T14:21:34;19.80;55.55
69731;SHT31;56996;48.138;11.538;2023-08-30T14:24:01;19.82;56.00
69731;SHT31;56996;48.138;11.538;2023-08-30T14:26:27;19.85;56.67
69731;SHT31;56996;48.138;11.538;2023-08-30T14:28:55;19.96;56.38
69731;SHT31;56996;48.138;11.538;2023-08-30T14:31:21;20.03;56.31
69731;SHT31;56996;48.138;11.538;2023-08-30T14:33:50;20.13;55.95
69731;SHT31;56996;48.138;11.538;2023-08-30T14:36:22;20.25;55.70
69731;SHT31;56996;48.138;11.538;2023-08-30T14:38:49;20.42;55.49
69731;SHT31;56996;48.138;11.538;2023-08-30T14:41:16;20.59;54.53
69731;SHT31;56996;48.138;11.538;2023-08-30T14:43:45;20.67;53.83
69731;SHT31;56996;48.138;11.538;2023-08-30T14:46:11;20.78;53.68
69731;SHT31;56996;48.138;11.538;2023-08-30T14:48:46;20.89;53.17
69731;SHT31;56996;48.138;11.538;2023-08-30T14:51:13;20.92;52.56
69731;SHT31;56996;48.138;11.538;2023-08-30T14:53:39;20.86;52.29
69731;SHT31;56996;48.138;11.538;2023-08-30T14:56:06;20.88;51.91
69731;SHT31;56996;48.138;11.538;2023-08-30T14:58:36;20.89;52.18
69731;SHT31;56996;48.138;11.538;2023-08-30T15:01:04;20.81;52.17
69731;SHT31;56996;48.138;11.538;2023-08-30T15:03:31;20.79;52.98
69731;SHT31;56996;48.138;11.538;2023-08-30T15:05:59;20.83;51.85
69731;SHT31;56996;48.138;11.538;2023-08-30T15:08:26;20.81;51.41
69731;SHT31;56996;48.138;11.538;2023-08-30T15:10:53;20.80;51.43
69731;SHT31;56996;48.138;11.538;2023-08-30T15:13:20;20.81;51.42
69731;SHT31;56996;48.138;11.538;2023-08-30T15:15:47;20.79;51.17
69731;SHT31;56996;48.138;11.538;2023-08-30T15:18:14;20.78;51.34
69731;SHT31;56996;48.138;11.538;2023-08-30T15:20:42;20.80;51.71
69731;SHT31;56996;48.138;11.538;2023-08-30T15:23:13;20.79;52.10
69731;SHT31;56996;48.138;11.538;2023-08-30T15:25:44;20.84;51.96
69731;SHT31;56996;48.138;11.538;2023-08-30T15:28:15;20.89;52.17